Time,TemperatureF,DewpointF,PressureIn,WindDirection,WindDirectionDegrees,WindSpeedMPH,WindSpeedGustMPH,Humidity,HourlyPrecipIn,Conditions,Clouds,dailyrainin,SoftwareType,DateUTC
2013-03-10 00:01:00,28.0,23.0,30.25,South,188,0.0,0.0,81,0.00,,,0.00,,2013-03-10 05:01:00,
2013-03-10 00:11:00,28.0,23.0,30.25,South,188,0.0,0.0,81,0.00,,,0.00,,2013-03-10 05:11:00,
2013-03-10 00:22:00,27.0,23.0,30.25,South,186,0.0,0.0,83,0.00,,,0.00,,2013-03-10 05:22:00,
2013-03-10 00:32:00,27.0,23.0,30.25,South,186,0.0,0.0,83,0.00,,,0.00,,2013-03-10 05:32:00,
2013-03-10 00:42:00,27.0,23.0,30.25,South,186,0.0,0.0,84,0.00,,,0.00,,2013-03-10 05:42:00,
2013-03-10 00:52:00,27.0,23.0,30.25,South,186,0.0,0.0,84,0.00,,,0.00,,2013-03-10 05:52:00,
2013-03-10 01:01:00,27.0,23.0,30.25,South,186,0.0,0.0,84,0.00,,,0.00,,2013-03-10 06:01:00,
2013-03-10 01:11:00,27.0,23.0,30.25,SSW,201,0.0,0.0,84,0.00,,,0.00,,2013-03-10 06:11:00,
2013-03-10 01:22:00,27.0,23.0,30.25,SSW,201,0.0,0.0,84,0.00,,,0.00,,2013-03-10 06:22:00,
2013-03-10 01:32:00,27.0,23.0,30.25,SSW,201,0.0,0.0,84,0.00,,,0.00,,2013-03-10 06:32:00,
2013-03-10 01:42:00,27.0,23.0,30.25,SSW,201,0.0,0.0,84,0.00,,,0.00,,2013-03-10 06:42:00,
2013-03-10 01:52:00,27.0,23.0,30.25,SSW,201,0.0,0.0,84,0.00,,,0.00,,2013-03-10 06:52:00,
2013-03-10 03:02:00,27.0,23.0,30.25,SSW,201,0.0,0.0,84,0.00,,,0.00,,2013-03-10 07:02:00,
2013-03-10 03:11:00,27.0,23.0,30.25,SSW,202,0.0,0.0,85,0.00,,,0.00,,2013-03-10 07:11:00,
2013-03-10 03:21:00,27.0,23.0,30.25,SSW,202,0.0,0.0,85,0.00,,,0.00,,2013-03-10 07:21:00,
2013-03-10 03:32:00,27.0,23.0,30.25,SSW,202,0.0,0.0,85,0.00,,,0.00,,2013-03-10 07:32:00,
2013-03-10 03:42:00,27.0,23.0,30.24,SSW,202,0.0,0.0,85,0.00,,,0.00,,2013-03-10 07:42:00,
2013-03-10 03:52:00,27.0,23.0,30.24,SSW,202,0.0,0.0,85,0.00,,,0.00,,2013-03-10 07:52:00,
2013-03-10 04:01:00,27.0,23.0,30.24,SSW,202,0.0,0.0,85,0.00,,,0.00,,2013-03-10 08:01:00,
2013-03-10 04:11:00,27.0,23.0,30.24,SSW,202,0.0,1.0,86,0.00,,,0.00,,2013-03-10 08:11:00,
2013-03-10 04:21:00,27.0,23.0,30.24,SSW,202,0.0,1.0,86,0.00,,,0.00,,2013-03-10 08:21:00,
2013-03-10 04:31:00,27.0,23.0,30.24,SSW,202,0.0,1.0,86,0.00,,,0.00,,2013-03-10 08:31:00,
2013-03-10 04:42:00,27.0,24.0,30.24,SSW,201,0.0,0.0,87,0.00,,,0.00,,2013-03-10 08:42:00,
2013-03-10 04:52:00,27.0,24.0,30.24,SSW,201,0.0,0.0,87,0.00,,,0.00,,2013-03-10 08:52:00,
2013-03-10 05:01:00,27.0,24.0,30.24,SSW,201,0.0,0.0,87,0.00,,,0.00,,2013-03-10 09:01:00,
2013-03-10 05:11:00,26.0,22.0,30.23,SSW,196,0.0,0.0,86,0.00,,,0.00,,2013-03-10 09:11:00,
2013-03-10 05:21:00,26.0,22.0,30.23,SSW,196,0.0,0.0,86,0.00,,,0.00,,2013-03-10 09:21:00,
2013-03-10 05:31:00,26.0,22.0,30.23,SSW,196,0.0,0.0,86,0.00,,,0.00,,2013-03-10 09:31:00,
2013-03-10 05:42:00,25.0,22.0,30.24,SSW,198,0.0,0.0,87,0.00,,,0.00,,2013-03-10 09:42:00,
2013-03-10 05:52:00,25.0,22.0,30.24,SSW,198,0.0,0.0,87,0.00,,,0.00,,2013-03-10 09:52:00,
2013-03-10 06:01:00,25.0,22.0,30.24,SSW,198,0.0,0.0,87,0.00,,,0.00,,2013-03-10 10:01:00,
2013-03-10 06:11:00,25.0,22.0,30.23,SSW,198,0.0,0.0,88,0.00,,,0.00,,2013-03-10 10:11:00,
2013-03-10 06:21:00,25.0,22.0,30.23,SSW,198,0.0,0.0,88,0.00,,,0.00,,2013-03-10 10:21:00,
2013-03-10 06:32:00,25.0,22.0,30.23,SSW,198,0.0,0.0,88,0.00,,,0.00,,2013-03-10 10:32:00,
2013-03-10 06:42:00,25.0,22.0,30.24,SSW,198,0.0,0.0,88,0.00,,,0.00,,2013-03-10 10:42:00,
2013-03-10 06:52:00,25.0,22.0,30.24,SSW,198,0.0,0.0,88,0.00,,,0.00,,2013-03-10 10:52:00,
2013-03-10 07:01:00,25.0,22.0,30.24,SSW,198,0.0,0.0,88,0.00,,,0.00,,2013-03-10 11:01:00,
2013-03-10 07:12:00,25.0,22.0,30.24,SSW,198,0.0,0.0,88,0.00,,,0.00,,2013-03-10 11:12:00,
2013-03-10 07:21:00,25.0,22.0,30.24,SSW,198,0.0,0.0,88,0.00,,,0.00,,2013-03-10 11:21:00,
2013-03-10 07:32:00,25.0,22.0,30.24,SSW,198,0.0,0.0,88,0.00,,,0.00,,2013-03-10 11:32:00,
2013-03-10 07:42:00,25.0,22.0,30.24,SSW,198,0.0,0.0,88,0.00,,,0.00,,2013-03-10 11:42:00,
2013-03-10 07:52:00,25.0,22.0,30.24,SSW,198,0.0,0.0,89,0.00,,,0.00,,2013-03-10 11:52:00,
2013-03-10 08:01:00,25.0,22.0,30.24,SSW,198,0.0,0.0,89,0.00,,,0.00,,2013-03-10 12:01:00,
2013-03-10 08:11:00,25.0,22.0,30.24,SSW,198,0.0,0.0,89,0.00,,,0.00,,2013-03-10 12:11:00,
2013-03-10 08:21:00,26.0,23.0,30.24,South,186,0.0,0.0,90,0.00,,,0.00,,2013-03-10 12:21:00,
2013-03-10 08:31:00,26.0,23.0,30.24,South,186,0.0,0.0,90,0.00,,,0.00,,2013-03-10 12:31:00,
2013-03-10 08:42:00,26.0,23.0,30.24,South,186,0.0,0.0,90,0.00,,,0.00,,2013-03-10 12:42:00,
2013-03-10 08:52:00,29.0,27.0,30.24,SSW,202,0.0,1.0,91,0.00,,,0.00,,2013-03-10 12:52:00,
2013-03-10 09:01:00,29.0,27.0,30.24,SSW,202,0.0,1.0,91,0.00,,,0.00,,2013-03-10 13:01:00,
2013-03-10 09:11:00,29.0,27.0,30.24,SSW,202,0.0,1.0,91,0.00,,,0.00,,2013-03-10 13:11:00,
2013-03-10 09:21:00,31.0,28.0,30.25,SSW,203,0.0,0.0,89,0.00,,,0.00,,2013-03-10 13:21:00,
2013-03-10 09:31:00,31.0,28.0,30.25,SSW,203,0.0,0.0,89,0.00,,,0.00,,2013-03-10 13:31:00,
2013-03-10 09:42:00,31.0,28.0,30.25,SSW,203,0.0,0.0,89,0.00,,,0.00,,2013-03-10 13:42:00,
2013-03-10 09:52:00,33.0,29.0,30.25,South,186,0.0,1.0,86,0.00,,,0.00,,2013-03-10 13:52:00,
2013-03-10 10:01:00,33.0,29.0,30.25,South,186,0.0,1.0,86,0.00,,,0.00,,2013-03-10 14:01:00,
2013-03-10 10:11:00,33.0,29.0,30.25,South,186,0.0,1.0,86,0.00,,,0.00,,2013-03-10 14:11:00,
2013-03-10 10:21:00,36.0,31.0,30.24,South,186,0.0,1.0,81,0.00,,,0.00,,2013-03-10 14:21:00,
2013-03-10 10:32:00,36.0,31.0,30.24,South,186,0.0,1.0,81,0.00,,,0.00,,2013-03-10 14:32:00,
2013-03-10 10:42:00,36.0,31.0,30.24,South,186,0.0,1.0,81,0.00,,,0.00,,2013-03-10 14:42:00,
2013-03-10 10:52:00,40.0,33.0,30.24,SE,135,0.0,3.0,76,0.00,,,0.00,,2013-03-10 14:52:00,
2013-03-10 11:01:00,40.0,33.0,30.24,SE,135,0.0,3.0,76,0.00,,,0.00,,2013-03-10 15:01:00,
2013-03-10 11:11:00,40.0,33.0,30.24,SE,135,0.0,3.0,76,0.00,,,0.00,,2013-03-10 15:11:00,
2013-03-10 11:21:00,43.0,35.0,30.24,SSE,152,0.0,4.0,72,0.00,,,0.00,,2013-03-10 15:21:00,
2013-03-10 11:32:00,43.0,35.0,30.24,SSE,152,0.0,4.0,72,0.00,,,0.00,,2013-03-10 15:32:00,
2013-03-10 11:42:00,43.0,35.0,30.24,SSE,152,0.0,4.0,72,0.00,,,0.00,,2013-03-10 15:42:00,
2013-03-10 11:52:00,46.0,35.0,30.24,SSE,152,1.0,5.0,65,0.00,,,0.00,,2013-03-10 15:52:00,
2013-03-10 12:01:00,46.0,35.0,30.24,SSE,152,1.0,5.0,65,0.00,,,0.00,,2013-03-10 16:01:00,
2013-03-10 12:12:00,46.0,35.0,30.24,SSE,152,1.0,5.0,65,0.00,,,0.00,,2013-03-10 16:12:00,
2013-03-10 12:21:00,52.0,30.0,30.24,SSE,162,6.0,9.0,43,0.00,,,0.00,,2013-03-10 16:21:00,
2013-03-10 12:32:00,52.0,30.0,30.24,SSE,162,6.0,9.0,43,0.00,,,0.00,,2013-03-10 16:32:00,
2013-03-10 12:42:00,52.0,30.0,30.24,SSE,162,6.0,9.0,43,0.00,,,0.00,,2013-03-10 16:42:00,
2013-03-10 12:52:00,54.0,30.0,30.23,East,90,4.0,12.0,40,0.00,,,0.00,,2013-03-10 16:52:00,
2013-03-10 13:01:00,54.0,30.0,30.23,East,90,4.0,12.0,40,0.00,,,0.00,,2013-03-10 17:01:00,
2013-03-10 13:11:00,54.0,30.0,30.23,East,90,4.0,12.0,40,0.00,,,0.00,,2013-03-10 17:11:00,
2013-03-10 13:21:00,55.0,31.0,30.23,SE,125,7.0,14.0,39,0.00,,,0.00,,2013-03-10 17:21:00,
2013-03-10 13:31:00,55.0,31.0,30.23,SE,125,7.0,14.0,39,0.00,,,0.00,,2013-03-10 17:31:00,
2013-03-10 13:41:00,55.0,31.0,30.23,SE,125,7.0,14.0,39,0.00,,,0.00,,2013-03-10 17:41:00,
2013-03-10 13:51:00,56.0,31.0,30.21,SE,136,0.0,10.0,38,0.00,,,0.00,,2013-03-10 17:51:00,
2013-03-10 14:01:00,56.0,31.0,30.21,SE,136,0.0,10.0,38,0.00,,,0.00,,2013-03-10 18:01:00,
2013-03-10 14:11:00,60.0,32.0,30.20,South,174,5.0,11.0,34,0.00,,,0.00,,2013-03-10 18:11:00,
2013-03-10 14:22:00,60.0,32.0,30.20,South,174,5.0,11.0,34,0.00,,,0.00,,2013-03-10 18:22:00,
2013-03-10 14:32:00,60.0,32.0,30.20,South,174,5.0,11.0,34,0.00,,,0.00,,2013-03-10 18:32:00,
2013-03-10 14:42:00,60.0,32.0,30.20,South,174,5.0,11.0,34,0.00,,,0.00,,2013-03-10 18:42:00,
2013-03-10 14:52:00,64.0,33.0,30.19,South,184,7.0,14.0,31,0.00,,,0.00,,2013-03-10 18:52:00,
2013-03-10 15:01:00,64.0,33.0,30.19,South,184,7.0,14.0,31,0.00,,,0.00,,2013-03-10 19:01:00,
2013-03-10 15:11:00,64.0,33.0,30.19,South,184,7.0,14.0,31,0.00,,,0.00,,2013-03-10 19:11:00,
2013-03-10 15:21:00,63.0,33.0,30.18,ESE,116,8.0,14.0,32,0.00,,,0.00,,2013-03-10 19:21:00,
2013-03-10 15:32:00,63.0,33.0,30.18,ESE,116,8.0,14.0,32,0.00,,,0.00,,2013-03-10 19:32:00,
2013-03-10 15:42:00,63.0,33.0,30.18,ESE,116,8.0,14.0,32,0.00,,,0.00,,2013-03-10 19:42:00,
2013-03-10 15:53:00,64.0,34.0,30.16,SSE,149,6.0,12.0,32,0.00,,,0.00,,2013-03-10 19:53:00,
2013-03-10 16:02:00,64.0,34.0,30.16,SSE,149,6.0,12.0,32,0.00,,,0.00,,2013-03-10 20:02:00,
2013-03-10 16:12:00,64.0,34.0,30.16,SSE,149,6.0,12.0,32,0.00,,,0.00,,2013-03-10 20:12:00,
2013-03-10 16:22:00,64.0,34.0,30.16,ESE,123,10.0,14.0,32,0.00,,,0.00,,2013-03-10 20:22:00,
2013-03-10 16:32:00,64.0,34.0,30.16,ESE,123,10.0,14.0,32,0.00,,,0.00,,2013-03-10 20:32:00,
2013-03-10 16:43:00,64.0,34.0,30.16,ESE,123,10.0,14.0,32,0.00,,,0.00,,2013-03-10 20:43:00,
2013-03-10 16:53:00,63.0,33.0,30.15,SSE,160,0.0,14.0,33,0.00,,,0.00,,2013-03-10 20:53:00,
2013-03-10 17:02:00,63.0,33.0,30.15,SSE,160,0.0,14.0,33,0.00,,,0.00,,2013-03-10 21:02:00,
2013-03-10 17:12:00,63.0,33.0,30.15,SSE,160,0.0,14.0,33,0.00,,,0.00,,2013-03-10 21:12:00,
2013-03-10 17:23:00,63.0,33.0,30.15,SE,126,5.0,9.0,32,0.00,,,0.00,,2013-03-10 21:23:00,
2013-03-10 17:32:00,63.0,33.0,30.15,SE,126,5.0,9.0,32,0.00,,,0.00,,2013-03-10 21:32:00,
2013-03-10 17:43:00,63.0,33.0,30.15,SE,126,5.0,9.0,32,0.00,,,0.00,,2013-03-10 21:43:00,
2013-03-10 17:53:00,63.0,32.0,30.15,SE,138,9.0,15.0,31,0.00,,,0.00,,2013-03-10 21:53:00,
2013-03-10 18:02:00,63.0,32.0,30.15,SE,138,9.0,15.0,31,0.00,,,0.00,,2013-03-10 22:02:00,
2013-03-10 18:12:00,63.0,32.0,30.15,SE,138,9.0,15.0,31,0.00,,,0.00,,2013-03-10 22:12:00,
2013-03-10 18:22:00,61.0,30.0,30.14,SE,132,8.0,15.0,31,0.00,,,0.00,,2013-03-10 22:22:00,
2013-03-10 18:32:00,61.0,30.0,30.14,SE,132,8.0,15.0,31,0.00,,,0.00,,2013-03-10 22:32:00,
2013-03-10 18:43:00,61.0,30.0,30.14,SE,132,8.0,15.0,31,0.00,,,0.00,,2013-03-10 22:43:00,
2013-03-10 18:53:00,59.0,29.0,30.15,ESE,115,9.0,17.0,32,0.00,,,0.00,,2013-03-10 22:53:00,
2013-03-10 19:03:00,59.0,29.0,30.15,ESE,115,9.0,17.0,32,0.00,,,0.00,,2013-03-10 23:03:00,
2013-03-10 19:12:00,56.0,27.0,30.14,SE,146,0.0,13.0,33,0.00,,,0.00,,2013-03-10 23:12:00,
2013-03-10 19:23:00,56.0,27.0,30.14,SE,146,0.0,13.0,33,0.00,,,0.00,,2013-03-10 23:23:00,
2013-03-10 19:33:00,56.0,27.0,30.14,SE,146,0.0,13.0,33,0.00,,,0.00,,2013-03-10 23:33:00,
2013-03-10 19:43:00,56.0,27.0,30.14,SE,146,0.0,13.0,33,0.00,,,0.00,,2013-03-10 23:43:00,
2013-03-10 19:52:00,55.0,26.0,30.15,SSE,149,4.0,8.0,33,0.00,,,0.00,,2013-03-10 23:52:00,
2013-03-10 20:02:00,55.0,26.0,30.15,SSE,149,4.0,8.0,33,0.00,,,0.00,,2013-03-11 00:02:00,
2013-03-10 20:13:00,55.0,26.0,30.15,SSE,149,4.0,8.0,33,0.00,,,0.00,,2013-03-11 00:13:00,
2013-03-10 20:23:00,54.0,26.0,30.15,SE,132,8.0,11.0,34,0.00,,,0.00,,2013-03-11 00:23:00,
2013-03-10 20:33:00,54.0,26.0,30.15,SE,132,8.0,11.0,34,0.00,,,0.00,,2013-03-11 00:33:00,
2013-03-10 20:43:00,54.0,26.0,30.15,SE,132,8.0,11.0,34,0.00,,,0.00,,2013-03-11 00:43:00,
2013-03-10 20:53:00,53.0,27.0,30.15,SE,131,2.0,10.0,36,0.00,,,0.00,,2013-03-11 00:53:00,
2013-03-10 21:03:00,53.0,27.0,30.15,SE,131,2.0,10.0,36,0.00,,,0.00,,2013-03-11 01:03:00,
2013-03-10 21:13:00,53.0,27.0,30.15,SE,131,2.0,10.0,36,0.00,,,0.00,,2013-03-11 01:13:00,
2013-03-10 21:23:00,52.0,27.0,30.14,SE,128,3.0,11.0,38,0.00,,,0.00,,2013-03-11 01:23:00,
2013-03-10 21:32:00,52.0,27.0,30.14,SE,128,3.0,11.0,38,0.00,,,0.00,,2013-03-11 01:32:00,
2013-03-10 21:43:00,52.0,27.0,30.14,SE,128,3.0,11.0,38,0.00,,,0.00,,2013-03-11 01:43:00,
2013-03-10 21:53:00,51.0,29.0,30.15,North,0,0.0,11.0,42,0.00,,,0.00,,2013-03-11 01:53:00,
2013-03-10 22:02:00,51.0,29.0,30.15,North,0,0.0,11.0,42,0.00,,,0.00,,2013-03-11 02:02:00,
2013-03-10 22:12:00,51.0,29.0,30.15,North,0,0.0,11.0,42,0.00,,,0.00,,2013-03-11 02:12:00,
2013-03-10 22:23:00,51.0,31.0,30.17,SSE,148,4.0,11.0,46,0.00,,,0.00,,2013-03-11 02:23:00,
2013-03-10 22:32:00,51.0,31.0,30.17,SSE,148,4.0,11.0,46,0.00,,,0.00,,2013-03-11 02:32:00,
2013-03-10 22:42:00,51.0,31.0,30.17,SSE,148,4.0,11.0,46,0.00,,,0.00,,2013-03-11 02:42:00,
2013-03-10 22:53:00,50.0,32.0,30.18,South,184,4.0,11.0,50,0.00,,,0.00,,2013-03-11 02:53:00,
2013-03-10 23:02:00,50.0,32.0,30.18,South,184,4.0,11.0,50,0.00,,,0.00,,2013-03-11 03:02:00,
2013-03-10 23:12:00,50.0,32.0,30.18,South,184,4.0,11.0,50,0.00,,,0.00,,2013-03-11 03:12:00,
2013-03-10 23:22:00,50.0,33.0,30.19,South,175,1.0,10.0,51,0.00,,,0.00,,2013-03-11 03:22:00,
2013-03-10 23:32:00,50.0,33.0,30.19,South,175,1.0,10.0,51,0.00,,,0.00,,2013-03-11 03:32:00,
2013-03-10 23:43:00,50.0,33.0,30.19,South,175,1.0,10.0,51,0.00,,,0.00,,2013-03-11 03:43:00,
2013-03-10 23:53:00,49.0,32.0,30.19,NNE,15,0.0,8.0,52,0.00,,,0.00,,2013-03-11 03:53:00,